createdAt,value
2018-02-19T00:02:20.686Z,21.37
2018-02-19T00:04:48.308Z,19.80
2018-02-19T00:07:15.943Z,20.10
2018-02-19T00:09:43.655Z,20.13
2018-02-19T00:12:11.294Z,20.30
2018-02-19T00:14:39.425Z,19.50
2018-02-19T00:17:07.111Z,21.00
2018-02-19T00:19:34.741Z,21.73
2018-02-19T00:22:02.381Z,22.03
2018-02-19T00:24:30.060Z,22.00
2018-02-19T00:26:59.050Z,22.20
2018-02-19T00:29:26.669Z,22.37
2018-02-19T00:31:54.392Z,21.33
2018-02-19T00:34:22.079Z,22.37
2018-02-19T00:36:49.718Z,22.33
2018-02-19T00:39:17.407Z,22.17
2018-02-19T00:41:45.055Z,22.33
2018-02-19T00:44:12.696Z,23.13
2018-02-19T00:46:41.326Z,21.50
2018-02-19T00:49:08.964Z,23.03
2018-02-19T00:51:36.613Z,22.87
2018-02-19T00:54:04.301Z,24.20
2018-02-19T00:56:31.998Z,25.57
2018-02-19T00:58:59.627Z,23.50
2018-02-19T01:01:27.311Z,22.50
2018-02-19T01:03:54.953Z,24.20
2018-02-19T01:06:22.588Z,22.10
2018-02-19T01:08:50.280Z,22.60
2018-02-19T01:11:17.931Z,23.03
2018-02-19T01:13:45.580Z,23.83
2018-02-19T01:16:13.279Z,21.47
2018-02-19T01:18:40.907Z,22.87
2018-02-19T01:23:51.844Z,30.95
2018-02-19T01:26:17.352Z,24.27
2018-02-19T01:28:44.993Z,24.80
2018-02-19T01:31:12.978Z,23.17
2018-02-19T01:33:40.624Z,21.10
2018-02-19T01:36:08.254Z,21.27
2018-02-19T01:38:35.929Z,20.80
2018-02-19T01:41:03.565Z,20.50
2018-02-19T01:43:31.206Z,21.07
2018-02-19T01:45:58.899Z,20.93
2018-02-19T01:48:26.531Z,20.20
2018-02-19T01:50:54.181Z,20.53
2018-02-19T01:53:21.887Z,20.27
2018-02-19T01:55:49.531Z,20.43
2018-02-19T01:58:17.160Z,21.23
2018-02-19T02:00:45.319Z,20.50
2018-02-19T02:03:12.960Z,21.50
2018-02-19T02:05:40.601Z,22.93
2018-02-19T02:08:08.308Z,21.90
2018-02-19T02:10:35.948Z,21.63
2018-02-19T02:13:03.574Z,21.33
2018-02-19T02:15:31.297Z,22.03
2018-02-19T02:17:58.934Z,22.20
2018-02-19T02:20:26.567Z,22.50
2018-02-19T02:22:54.293Z,23.67
2018-02-19T02:25:21.946Z,21.93
2018-02-19T02:27:49.565Z,23.63
2018-02-19T02:30:17.261Z,22.10
2018-02-19T02:32:44.892Z,22.90
2018-02-19T02:35:12.520Z,21.80
2018-02-19T02:37:42.207Z,22.03
2018-02-19T02:40:07.873Z,22.23
2018-02-19T02:42:35.496Z,23.30
2018-02-19T02:45:03.634Z,22.90
2018-02-19T02:50:10.428Z,29.33
2018-02-19T02:52:38.073Z,23.53
2018-02-19T02:55:05.710Z,22.27
2018-02-19T02:57:33.432Z,20.53
2018-02-19T03:00:01.059Z,17.77
2018-02-19T03:02:28.694Z,17.47
2018-02-19T03:04:56.384Z,18.80
2018-02-19T03:07:26.017Z,19.53
2018-02-19T03:09:53.658Z,19.17
2018-02-19T03:12:21.342Z,18.27
2018-02-19T03:14:48.990Z,19.93
2018-02-19T03:17:16.629Z,20.50
2018-02-19T03:19:44.333Z,20.37
2018-02-19T03:22:11.971Z,20.40
2018-02-19T03:24:39.602Z,19.50
2018-02-19T03:27:07.300Z,16.23
2018-02-19T03:29:34.970Z,14.13
2018-02-19T03:32:02.864Z,10.83
2018-02-19T03:34:30.553Z,13.00
2018-02-19T03:37:02.089Z,13.33
2018-02-19T03:39:29.751Z,15.50
2018-02-19T03:41:57.429Z,17.73
2018-02-19T03:44:25.061Z,18.20
2018-02-19T03:46:52.700Z,19.10
2018-02-19T03:49:20.404Z,19.20
2018-02-19T03:51:48.031Z,19.80
2018-02-19T03:54:15.693Z,19.03
2018-02-19T03:56:43.391Z,20.17
2018-02-19T03:59:11.041Z,18.87
2018-02-19T04:01:38.679Z,18.53
2018-02-19T04:04:06.378Z,19.80
2018-02-19T04:09:13.568Z,26.27
2018-02-19T04:11:41.207Z,21.40
2018-02-19T04:14:08.847Z,19.80
2018-02-19T04:16:36.528Z,19.73
2018-02-19T04:19:04.240Z,19.17
2018-02-19T04:21:31.879Z,20.93
2018-02-19T04:23:59.564Z,19.67
2018-02-19T04:26:27.188Z,20.47
2018-02-19T04:28:54.820Z,20.47
2018-02-19T04:31:22.525Z,21.00
2018-02-19T04:33:51.107Z,20.87
2018-02-19T04:36:18.741Z,19.33
2018-02-19T04:38:46.447Z,19.37
2018-02-19T04:41:14.096Z,19.27
2018-02-19T04:43:41.717Z,20.30
2018-02-19T04:48:48.216Z,25.67
2018-02-19T04:51:15.936Z,21.23
2018-02-19T04:53:43.941Z,21.07
2018-02-19T04:56:11.571Z,19.73
2018-02-19T04:58:39.315Z,20.43
2018-02-19T05:01:06.955Z,17.53
2018-02-19T05:03:35.065Z,18.77
2018-02-19T05:06:02.786Z,18.93
2018-02-19T05:08:33.845Z,17.33
2018-02-19T05:11:01.465Z,17.67
2018-02-19T05:13:29.153Z,17.70
2018-02-19T05:15:56.794Z,16.97
2018-02-19T05:18:24.451Z,15.87
2018-02-19T05:20:52.152Z,17.80
2018-02-19T05:23:19.785Z,15.93
2018-02-19T05:25:47.419Z,16.53
2018-02-19T05:28:15.122Z,17.73
2018-02-19T05:30:42.772Z,16.67
2018-02-19T05:33:10.400Z,19.03
2018-02-19T05:35:38.101Z,18.37
2018-02-19T05:38:05.732Z,18.97
2018-02-19T05:40:33.371Z,18.43
2018-02-19T05:43:01.072Z,17.80
2018-02-19T05:45:28.764Z,17.90
2018-02-19T05:47:56.390Z,16.40
2018-02-19T05:50:24.077Z,16.67
2018-02-19T05:52:52.984Z,14.87
2018-02-19T05:55:20.579Z,14.63
2018-02-19T05:57:48.288Z,15.20
2018-02-19T06:02:59.452Z,19.02
2018-02-19T06:08:06.635Z,17.25
2018-02-19T06:10:34.282Z,12.57
2018-02-19T06:13:01.932Z,11.17
2018-02-19T06:15:29.623Z,11.87
2018-02-19T06:17:57.258Z,11.07
2018-02-19T06:20:24.936Z,10.00
2018-02-19T06:22:52.607Z,9.07
2018-02-19T06:27:59.452Z,10.15
2018-02-19T06:30:28.865Z,9.50
2018-02-19T06:32:56.495Z,7.07
2018-02-19T06:35:24.276Z,7.67
2018-02-19T06:37:51.816Z,6.97
2018-02-19T06:40:19.434Z,7.50
2018-02-19T06:42:47.110Z,7.60
2018-02-19T06:45:14.791Z,7.27
2018-02-19T06:47:42.432Z,9.63
2018-02-19T06:50:10.573Z,12.87
2018-02-19T06:52:38.564Z,13.07
2018-02-19T06:55:06.202Z,13.00
2018-02-19T06:57:33.890Z,13.50
2018-02-19T07:00:01.522Z,13.93
2018-02-19T07:02:29.149Z,14.37
2018-02-19T07:04:56.844Z,14.70
2018-02-19T07:07:24.465Z,11.47
2018-02-19T07:09:52.635Z,7.77
2018-02-19T07:12:20.334Z,8.30
2018-02-19T07:14:47.948Z,9.30
2018-02-19T07:17:15.962Z,8.70
2018-02-19T07:19:43.642Z,8.50
2018-02-19T07:22:11.265Z,7.93
2018-02-19T07:24:38.891Z,8.10
2018-02-19T07:27:06.571Z,7.73
2018-02-19T07:29:34.199Z,8.33
2018-02-19T07:32:01.829Z,8.80
2018-02-19T07:34:29.524Z,7.77
2018-02-19T07:39:28.853Z,8.17
2018-02-19T07:41:56.557Z,8.33
2018-02-19T07:44:24.183Z,9.00
2018-02-19T07:46:51.938Z,8.77
2018-02-19T07:49:19.640Z,8.27
2018-02-19T07:54:26.430Z,9.43
2018-02-19T07:56:54.048Z,7.83
2018-02-19T07:59:21.670Z,6.17
2018-02-19T08:01:49.358Z,6.27
2018-02-19T08:04:16.981Z,6.67
2018-02-19T08:06:44.619Z,6.50
2018-02-19T08:09:12.308Z,6.07
2018-02-19T08:11:39.945Z,6.17
2018-02-19T08:14:07.570Z,7.00
2018-02-19T08:16:35.271Z,6.00
2018-02-19T08:19:02.893Z,5.83
2018-02-19T08:21:30.519Z,6.27
2018-02-19T08:23:58.202Z,6.47
2018-02-19T08:26:25.820Z,6.10
2018-02-19T08:28:53.456Z,5.50
2018-02-19T08:31:21.322Z,6.77
2018-02-19T08:33:48.776Z,6.13
2018-02-19T08:36:16.414Z,6.73
2018-02-19T08:38:44.629Z,7.07
2018-02-19T08:41:12.245Z,7.53
2018-02-19T08:43:39.855Z,7.73
2018-02-19T08:46:08.085Z,7.33
2018-02-19T08:48:35.700Z,8.73
2018-02-19T08:51:03.321Z,7.30
2018-02-19T08:53:31.028Z,8.20
2018-02-19T08:55:58.643Z,6.47
2018-02-19T08:58:26.283Z,7.80
2018-02-19T09:00:53.960Z,8.73
2018-02-19T09:03:21.586Z,7.73
2018-02-19T09:05:49.237Z,9.47
2018-02-19T09:08:16.916Z,9.13
2018-02-19T09:10:44.560Z,9.83
2018-02-19T09:13:12.188Z,10.00
2018-02-19T09:15:39.868Z,8.80
2018-02-19T09:20:46.658Z,12.13
2018-02-19T09:23:14.301Z,10.80
2018-02-19T09:25:41.928Z,10.43
2018-02-19T09:28:09.631Z,10.63
2018-02-19T09:30:37.255Z,9.57
2018-02-19T09:33:04.880Z,9.70
2018-02-19T09:35:32.581Z,10.60
2018-02-19T09:38:00.248Z,10.13
2018-02-19T09:40:27.888Z,9.87
2018-02-19T09:42:55.590Z,9.17
2018-02-19T09:45:23.244Z,9.30
2018-02-19T09:47:50.928Z,9.97
2018-02-19T09:50:18.623Z,10.30
2018-02-19T09:52:46.263Z,9.70
2018-02-19T09:55:13.895Z,9.47
2018-02-19T09:57:41.579Z,10.20
2018-02-19T10:00:09.206Z,9.80
2018-02-19T10:02:37.894Z,9.70
2018-02-19T10:05:05.587Z,9.83
2018-02-19T10:07:33.230Z,9.87
2018-02-19T10:10:00.910Z,10.63
2018-02-19T10:12:29.497Z,11.67
2018-02-19T10:14:57.116Z,10.40
2018-02-19T10:17:24.768Z,10.87
2018-02-19T10:19:52.456Z,10.23
2018-02-19T10:22:20.122Z,11.10
2018-02-19T10:24:47.784Z,9.93
2018-02-19T10:27:15.485Z,10.63
2018-02-19T10:29:43.119Z,10.83
2018-02-19T10:32:10.740Z,9.50
2018-02-19T10:34:38.416Z,5.80
2018-02-19T10:37:06.043Z,8.07
2018-02-19T10:42:12.801Z,12.20
2018-02-19T10:44:40.511Z,10.40
2018-02-19T10:47:08.071Z,10.83
2018-02-19T10:49:35.743Z,11.63
2018-02-19T10:52:03.372Z,9.60
2018-02-19T10:54:31.000Z,10.87
2018-02-19T10:56:58.730Z,9.77
2018-02-19T10:59:26.357Z,9.27
2018-02-19T11:01:53.999Z,10.60
2018-02-19T11:04:21.680Z,9.20
2018-02-19T11:06:52.572Z,9.97
2018-02-19T11:09:20.208Z,11.57
2018-02-19T11:11:47.927Z,11.50
2018-02-19T11:14:15.578Z,10.63
2018-02-19T11:16:43.217Z,10.80
2018-02-19T11:19:10.984Z,9.73
2018-02-19T11:21:39.026Z,10.70
2018-02-19T11:24:06.695Z,10.17
2018-02-19T11:26:34.350Z,11.50
2018-02-19T11:29:01.976Z,10.53
2018-02-19T11:31:29.613Z,9.23
2018-02-19T11:33:57.335Z,9.80
2018-02-19T11:36:24.959Z,11.53
2018-02-19T11:38:55.447Z,11.20
2018-02-19T11:41:21.491Z,11.30
2018-02-19T11:43:49.131Z,11.33
2018-02-19T11:46:16.781Z,11.13
2018-02-19T11:48:44.486Z,11.03
2018-02-19T11:51:12.136Z,12.03
2018-02-19T11:53:39.804Z,10.73
2018-02-19T11:56:07.485Z,11.23
2018-02-19T12:01:14.288Z,12.85
2018-02-19T12:03:41.931Z,11.17
2018-02-19T12:06:10.027Z,11.30
2018-02-19T12:08:37.714Z,10.63
2018-02-19T12:11:05.346Z,11.90
2018-02-19T12:13:32.979Z,12.17
2018-02-19T12:16:00.678Z,11.00
2018-02-19T12:18:28.300Z,10.57
2018-02-19T12:20:55.936Z,10.13
2018-02-19T12:23:23.631Z,11.23
2018-02-19T12:25:51.287Z,10.87
2018-02-19T12:28:18.923Z,10.57
2018-02-19T12:30:46.603Z,10.60
2018-02-19T12:33:14.237Z,10.77
2018-02-19T12:35:41.867Z,10.73
2018-02-19T12:38:09.556Z,10.87
2018-02-19T12:40:37.195Z,10.20
2018-02-19T12:43:04.821Z,5.90
2018-02-19T12:45:32.535Z,9.33
2018-02-19T12:48:00.186Z,10.77
2018-02-19T12:50:27.820Z,10.40
2018-02-19T12:52:55.543Z,9.87
2018-02-19T12:55:23.179Z,10.13
2018-02-19T12:57:50.808Z,9.77
2018-02-19T13:00:18.500Z,9.83
2018-02-19T13:02:46.160Z,9.20
2018-02-19T13:05:13.859Z,9.67
2018-02-19T13:07:45.017Z,9.63
2018-02-19T13:10:12.688Z,9.10
2018-02-19T13:12:43.977Z,9.13
2018-02-19T13:15:12.204Z,9.40
2018-02-19T13:17:39.841Z,8.83
2018-02-19T13:20:07.476Z,9.17
2018-02-19T13:25:14.287Z,10.30
2018-02-19T13:27:41.972Z,9.80
2018-02-19T13:30:09.603Z,9.53
2018-02-19T13:32:37.237Z,9.00
2018-02-19T13:35:04.942Z,8.37
2018-02-19T13:37:33.092Z,7.03
2018-02-19T13:40:01.132Z,9.40
2018-02-19T13:42:28.821Z,8.17
2018-02-19T13:44:56.466Z,7.90
2018-02-19T13:47:24.105Z,9.60
2018-02-19T13:49:51.759Z,7.83
2018-02-19T13:52:19.780Z,8.13
2018-02-19T13:54:47.408Z,8.30
2018-02-19T13:57:15.114Z,6.50
2018-02-19T13:59:42.744Z,7.70
2018-02-19T14:02:10.464Z,7.70
2018-02-19T14:04:38.102Z,7.90
2018-02-19T14:07:05.757Z,8.07
2018-02-19T14:09:33.383Z,7.40
2018-02-19T14:12:01.595Z,7.27
2018-02-19T14:14:30.671Z,8.30
2018-02-19T14:16:58.303Z,8.03
2018-02-19T14:19:25.997Z,7.30
2018-02-19T14:21:54.431Z,8.50
2018-02-19T14:24:22.105Z,7.53
2018-02-19T14:26:49.839Z,7.10
2018-02-19T14:29:17.485Z,7.10
2018-02-19T14:31:45.138Z,6.90
2018-02-19T14:34:12.864Z,6.80
2018-02-19T14:36:40.487Z,6.73
2018-02-19T14:41:51.813Z,9.50
2018-02-19T14:44:19.509Z,7.93
2018-02-19T14:46:47.171Z,8.80
2018-02-19T14:49:14.860Z,10.03
2018-02-19T14:51:42.503Z,9.00
2018-02-19T14:54:10.154Z,10.30
2018-02-19T14:56:37.850Z,11.43
2018-02-19T14:59:05.502Z,13.03
2018-02-19T15:01:33.149Z,13.70
2018-02-19T15:04:00.849Z,13.50
2018-02-19T15:06:28.483Z,12.77
2018-02-19T15:08:56.135Z,12.70
2018-02-19T15:11:23.882Z,14.47
2018-02-19T15:13:51.531Z,14.37
2018-02-19T15:16:19.164Z,13.63
2018-02-19T15:18:46.886Z,14.23
2018-02-19T15:21:14.510Z,15.33
2018-02-19T15:23:42.180Z,11.13
2018-02-19T15:26:09.865Z,13.80
2018-02-19T15:28:40.661Z,13.10
2018-02-19T15:31:08.306Z,14.70
2018-02-19T15:33:36.003Z,15.63
2018-02-19T15:36:03.645Z,15.57
2018-02-19T15:38:31.281Z,13.13
2018-02-19T15:40:58.970Z,10.07
2018-02-19T15:43:27.086Z,10.07
2018-02-19T15:45:54.732Z,13.53
2018-02-19T15:48:22.414Z,15.30
2018-02-19T15:50:50.091Z,13.40
2018-02-19T15:55:58.387Z,17.05
2018-02-19T15:58:26.045Z,16.87
2018-02-19T16:00:53.697Z,15.63
2018-02-19T16:03:21.410Z,12.63
2018-02-19T16:05:51.056Z,16.10
2018-02-19T16:08:16.720Z,13.37
2018-02-19T16:10:44.483Z,12.27
2018-02-19T16:13:12.123Z,11.57
2018-02-19T16:15:39.764Z,14.77
2018-02-19T16:18:07.654Z,15.20
2018-02-19T16:20:35.308Z,13.00
2018-02-19T16:23:02.974Z,14.57
2018-02-19T16:25:30.678Z,15.03
2018-02-19T16:27:58.320Z,14.50
2018-02-19T16:30:25.953Z,14.50
2018-02-19T16:32:53.669Z,14.70
2018-02-19T16:35:21.328Z,14.83
2018-02-19T16:37:48.966Z,14.77
2018-02-19T16:40:16.661Z,15.17
2018-02-19T16:42:44.293Z,13.70
2018-02-19T16:45:11.956Z,14.53
2018-02-19T16:47:39.636Z,13.97
2018-02-19T16:50:07.320Z,14.63
2018-02-19T16:52:34.974Z,15.43
2018-02-19T16:55:02.688Z,15.10
2018-02-19T16:57:30.334Z,15.63
2018-02-19T16:59:57.955Z,15.70
2018-02-19T17:02:25.643Z,14.70
2018-02-19T17:04:53.278Z,13.67
2018-02-19T17:07:21.426Z,14.67
2018-02-19T17:12:33.567Z,19.42
2018-02-19T17:15:01.417Z,17.70
2018-02-19T17:17:29.218Z,15.93
2018-02-19T17:19:56.907Z,15.33
2018-02-19T17:22:24.954Z,14.93
2018-02-19T17:24:52.305Z,15.47
2018-02-19T17:27:19.937Z,16.27
2018-02-19T17:29:47.650Z,16.07
2018-02-19T17:32:15.412Z,17.20
2018-02-19T17:34:43.087Z,15.20
2018-02-19T17:37:10.913Z,17.67
2018-02-19T17:39:38.543Z,15.30
2018-02-19T17:42:06.174Z,14.47
2018-02-19T17:44:33.904Z,14.80
2018-02-19T17:47:01.579Z,15.47
2018-02-19T17:49:29.216Z,17.87
2018-02-19T17:51:56.912Z,15.80
2018-02-19T17:54:24.545Z,15.23
2018-02-19T17:56:52.179Z,17.70
2018-02-19T17:59:19.889Z,17.50
2018-02-19T18:01:47.523Z,16.93
2018-02-19T18:04:15.165Z,15.73
2018-02-19T18:06:42.888Z,15.60
2018-02-19T18:09:10.541Z,16.43
2018-02-19T18:11:38.193Z,19.53
2018-02-19T18:14:05.897Z,17.87
2018-02-19T18:16:33.581Z,19.03
2018-02-19T18:19:01.206Z,19.37
2018-02-19T18:21:28.955Z,19.13
2018-02-19T18:23:56.574Z,19.57
2018-02-19T18:29:03.715Z,23.08
2018-02-19T18:31:31.391Z,17.30
2018-02-19T18:33:59.021Z,18.47
2018-02-19T18:36:26.716Z,16.63
2018-02-19T18:38:54.364Z,18.70
2018-02-19T18:41:22.040Z,18.07
2018-02-19T18:43:49.745Z,19.03
2018-02-19T18:46:17.469Z,19.03
2018-02-19T18:48:45.096Z,18.40
2018-02-19T18:51:12.788Z,20.33
2018-02-19T18:53:40.427Z,18.90
2018-02-19T18:56:08.062Z,18.80
2018-02-19T18:58:35.767Z,18.73
2018-02-19T19:01:03.453Z,20.17
2018-02-19T19:03:31.141Z,18.87
2018-02-19T19:06:00.723Z,19.47
2018-02-19T19:11:15.422Z,24.80
2018-02-19T19:13:43.522Z,20.37
2018-02-19T19:16:17.202Z,18.73
2018-02-19T19:18:45.069Z,17.33
2018-02-19T19:21:13.637Z,18.60
2018-02-19T19:23:41.707Z,18.77
2018-02-19T19:26:09.890Z,16.87
2018-02-19T19:28:38.339Z,19.83
2018-02-19T19:31:06.059Z,17.40
2018-02-19T19:33:33.727Z,20.37
2018-02-19T19:36:01.382Z,20.43
2018-02-19T19:38:29.096Z,21.00
2018-02-19T19:40:59.241Z,20.50
2018-02-19T19:43:26.091Z,19.83
2018-02-19T19:45:54.917Z,17.77
2018-02-19T19:48:22.640Z,19.97
2018-02-19T19:50:50.324Z,18.50
2018-02-19T19:53:21.936Z,16.93
2018-02-19T19:55:55.563Z,20.83
2018-02-19T19:58:23.265Z,19.67
2018-02-19T20:00:53.431Z,18.53
2018-02-19T20:06:00.097Z,24.67
2018-02-19T20:08:27.729Z,19.50
2018-02-19T20:10:55.377Z,21.10
2018-02-19T20:13:25.960Z,19.53
2018-02-19T20:15:51.409Z,21.07
2018-02-19T20:18:19.054Z,17.37
2018-02-19T20:20:46.751Z,18.83
2018-02-19T20:23:14.388Z,18.43
2018-02-19T20:25:42.042Z,20.00
2018-02-19T20:28:09.779Z,18.13
2018-02-19T20:30:37.428Z,18.83
2018-02-19T20:33:05.060Z,20.13
2018-02-19T20:35:32.838Z,20.90
2018-02-19T20:38:00.472Z,19.17
2018-02-19T20:40:28.483Z,19.53
2018-02-19T20:42:56.175Z,17.50
2018-02-19T20:45:23.834Z,18.47
2018-02-19T20:47:51.464Z,19.47
2018-02-19T20:50:19.155Z,17.87
2018-02-19T20:55:26.074Z,25.08
2018-02-19T20:57:53.817Z,20.23
2018-02-19T21:00:21.613Z,20.50
2018-02-19T21:02:49.148Z,20.57
2018-02-19T21:05:16.804Z,19.70
2018-02-19T21:07:44.477Z,19.10
2018-02-19T21:10:12.190Z,19.17
2018-02-19T21:12:39.952Z,20.57
2018-02-19T21:15:07.660Z,20.83
2018-02-19T21:17:35.396Z,20.03
2018-02-19T21:20:03.044Z,17.63
2018-02-19T21:22:30.692Z,19.00
2018-02-19T21:24:58.393Z,19.17
2018-02-19T21:30:08.796Z,25.45
2018-02-19T21:32:36.418Z,21.07
2018-02-19T21:35:04.090Z,20.03
2018-02-19T21:37:32.038Z,20.43
2018-02-19T21:42:41.370Z,25.70
2018-02-19T21:45:08.940Z,20.83
2018-02-19T21:47:36.591Z,18.17
2018-02-19T21:50:04.739Z,21.70
2018-02-19T21:52:32.681Z,19.63
2018-02-19T21:55:00.897Z,19.63
2018-02-19T21:57:28.679Z,21.17
2018-02-19T21:59:59.416Z,20.60
2018-02-19T22:02:27.166Z,19.67
2018-02-19T22:04:54.807Z,20.70
2018-02-19T22:07:22.444Z,19.20
2018-02-19T22:09:50.072Z,21.50
2018-02-19T22:12:17.756Z,19.23
2018-02-19T22:14:45.664Z,18.97
2018-02-19T22:17:13.686Z,19.77
2018-02-19T22:19:41.376Z,18.70
2018-02-19T22:24:40.775Z,21.57
2018-02-19T22:27:09.209Z,21.67
2018-02-19T22:29:37.773Z,20.90
2018-02-19T22:32:05.504Z,21.03
2018-02-19T22:34:33.305Z,20.70
2018-02-19T22:37:00.948Z,20.80
2018-02-19T22:39:29.449Z,22.07
2018-02-19T22:41:59.158Z,22.57
2018-02-19T22:44:26.786Z,21.23
2018-02-19T22:46:54.962Z,21.90
2018-02-19T22:49:22.677Z,21.40
2018-02-19T22:51:50.948Z,20.13
2018-02-19T22:54:18.578Z,20.63
2018-02-19T22:56:46.259Z,21.43
2018-02-19T22:59:14.590Z,21.93
2018-02-19T23:01:42.241Z,22.00
2018-02-19T23:04:09.910Z,20.47
2018-02-19T23:06:37.547Z,22.00
2018-02-19T23:11:44.335Z,27.35
2018-02-19T23:14:11.962Z,23.87
2018-02-19T23:16:39.591Z,23.27
2018-02-19T23:19:07.753Z,23.13
2018-02-19T23:21:35.383Z,21.47
2018-02-19T23:24:03.017Z,20.97
2018-02-19T23:26:30.723Z,21.03
2018-02-19T23:28:58.345Z,22.03
2018-02-19T23:31:26.360Z,21.87
2018-02-19T23:33:54.047Z,22.63
2018-02-19T23:36:21.677Z,21.97
2018-02-19T23:38:49.301Z,23.27
2018-02-19T23:41:16.971Z,20.17
2018-02-19T23:43:44.591Z,21.47
2018-02-19T23:46:12.215Z,20.10
2018-02-19T23:48:39.892Z,21.60
2018-02-19T23:51:07.516Z,22.00
2018-02-19T23:53:35.144Z,22.77
2018-02-19T23:56:02.860Z,20.20
2018-02-19T23:58:30.500Z,22.23
